sensor_id;sensor_type;location;lat;lon;timestamp;temperature;humidity
19586;DHT22;9939;49.246;9.106;2023-04-03T00:01:41;3.50;99.90
19586;DHT22;9939;49.246;9.106;2023-04-03T00:04:08;3.30;99.90
19586;DHT22;9939;49.246;9.106;2023-04-03T00:06:35;3.30;99.90
19586;DHT22;9939;49.246;9.106;2023-04-03T00:09:02;3.40;99.90
19586;DHT22;9939;49.246;9.106;2023-04-03T00:11:29;3.40;99.90
19586;DHT22;9939;49.246;9.106;2023-04-03T00:13:56;3.50;99.90
19586;DHT22;9939;49.246;9.106;2023-04-03T00:16:23;3.60;99.90
19586;DHT22;9939;49.246;9.106;2023-04-03T00:18:50;3.60;99.90
19586;DHT22;9939;49.246;9.106;2023-04-03T00:21:17;3.70;99.90
19586;DHT22;9939;49.246;9.106;2023-04-03T00:23:44;3.80;99.90
19586;DHT22;9939;49.246;9.106;2023-04-03T00:26:11;3.70;99.90
19586;DHT22;9939;49.246;9.106;2023-04-03T00:28:40;3.80;99.90
19586;DHT22;9939;49.246;9.106;2023-04-03T00:31:07;3.80;99.90
19586;DHT22;9939;49.246;9.106;2023-04-03T00:33:35;3.80;99.90
19586;DHT22;9939;49.246;9.106;2023-04-03T00:36:07;3.70;99.90
19586;DHT22;9939;49.246;9.106;2023-04-03T00:38:34;3.70;99.90
19586;DHT22;9939;49.246;9.106;2023-04-03T00:41:01;3.70;99.90
19586;DHT22;9939;49.246;9.106;2023-04-03T00:43:28;3.70;99.90
19586;DHT22;9939;49.246;9.106;2023-04-03T00:45:55;3.70;99.90
19586;DHT22;9939;49.246;9.106;2023-04-03T00:50:50;3.60;99.90
19586;DHT22;9939;49.246;9.106;2023-04-03T00:53:25;3.60;99.90
19586;DHT22;9939;49.246;9.106;2023-04-03T00:55:53;3.70;99.90
19586;DHT22;9939;49.246;9.106;2023-04-03T00:58:22;3.80;99.90
19586;DHT22;9939;49.246;9.106;2023-04-03T01:00:54;3.80;99.90
19586;DHT22;9939;49.246;9.106;2023-04-03T01:03:23;3.70;99.90
19586;DHT22;9939;49.246;9.106;2023-04-03T01:05:52;3.60;99.90
19586;DHT22;9939;49.246;9.106;2023-04-03T01:08:19;3.60;99.90
19586;DHT22;9939;49.246;9.106;2023-04-03T01:10:48;3.60;99.90
19586;DHT22;9939;49.246;9.106;2023-04-03T01:13:18;3.50;99.90
19586;DHT22;9939;49.246;9.106;2023-04-03T01:15:45;3.70;99.90
19586;DHT22;9939;49.246;9.106;2023-04-03T01:18:12;3.60;99.90
19586;DHT22;9939;49.246;9.106;2023-04-03T01:23:38;3.60;99.90
19586;DHT22;9939;49.246;9.106;2023-04-03T01:26:08;3.60;99.90
19586;DHT22;9939;49.246;9.106;2023-04-03T01:28:38;3.80;99.90
19586;DHT22;9939;49.246;9.106;2023-04-03T01:31:28;3.80;99.90
19586;DHT22;9939;49.246;9.106;2023-04-03T01:33:54;4.00;99.90
19586;DHT22;9939;49.246;9.106;2023-04-03T01:36:26;3.80;99.90
19586;DHT22;9939;49.246;9.106;2023-04-03T01:38:54;3.90;99.90
19586;DHT22;9939;49.246;9.106;2023-04-03T01:41:22;3.90;99.90
19586;DHT22;9939;49.246;9.106;2023-04-03T01:43:52;3.90;99.90
19586;DHT22;9939;49.246;9.106;2023-04-03T01:46:20;3.90;99.90
19586;DHT22;9939;49.246;9.106;2023-04-03T01:48:47;3.90;99.90
19586;DHT22;9939;49.246;9.106;2023-04-03T01:51:14;4.00;99.90
19586;DHT22;9939;49.246;9.106;2023-04-03T01:53:41;3.90;99.90
19586;DHT22;9939;49.246;9.106;2023-04-03T01:56:08;3.90;99.90
19586;DHT22;9939;49.246;9.106;2023-04-03T01:58:36;3.80;99.90
19586;DHT22;9939;49.246;9.106;2023-04-03T02:01:03;3.80;99.90
19586;DHT22;9939;49.246;9.106;2023-04-03T02:03:29;3.90;99.90
19586;DHT22;9939;49.246;9.106;2023-04-03T02:05:57;3.90;99.90
19586;DHT22;9939;49.246;9.106;2023-04-03T02:08:25;3.80;99.90
19586;DHT22;9939;49.246;9.106;2023-04-03T02:10:52;4.50;99.90
19586;DHT22;9939;49.246;9.106;2023-04-03T02:13:19;3.80;99.90
19586;DHT22;9939;49.246;9.106;2023-04-03T02:15:46;3.90;99.90
19586;DHT22;9939;49.246;9.106;2023-04-03T02:18:16;3.90;99.90
19586;DHT22;9939;49.246;9.106;2023-04-03T02:20:43;3.80;99.90
19586;DHT22;9939;49.246;9.106;2023-04-03T02:23:10;3.80;99.90
19586;DHT22;9939;49.246;9.106;2023-04-03T02:25:37;3.80;99.90
19586;DHT22;9939;49.246;9.106;2023-04-03T02:28:05;3.80;99.90
19586;DHT22;9939;49.246;9.106;2023-04-03T02:30:32;3.90;99.90
19586;DHT22;9939;49.246;9.106;2023-04-03T02:32:59;3.80;99.90
19586;DHT22;9939;49.246;9.106;2023-04-03T02:35:26;3.80;99.90
19586;DHT22;9939;49.246;9.106;2023-04-03T02:37:55;3.80;99.90
19586;DHT22;9939;49.246;9.106;2023-04-03T02:40:23;4.00;99.90
19586;DHT22;9939;49.246;9.106;2023-04-03T02:42:50;3.90;99.90
19586;DHT22;9939;49.246;9.106;2023-04-03T02:45:18;4.00;99.90
19586;DHT22;9939;49.246;9.106;2023-04-03T02:47:45;3.90;99.90
19586;DHT22;9939;49.246;9.106;2023-04-03T02:50:12;4.00;99.90
19586;DHT22;9939;49.246;9.106;2023-04-03T02:52:39;4.00;99.90
19586;DHT22;9939;49.246;9.106;2023-04-03T02:55:07;3.90;99.90
19586;DHT22;9939;49.246;9.106;2023-04-03T02:57:34;3.90;99.90
19586;DHT22;9939;49.246;9.106;2023-04-03T03:00:02;4.00;99.90
19586;DHT22;9939;49.246;9.106;2023-04-03T03:02:29;4.00;99.90
19586;DHT22;9939;49.246;9.106;2023-04-03T03:04:57;3.90;99.90
19586;DHT22;9939;49.246;9.106;2023-04-03T03:07:24;3.90;99.90
19586;DHT22;9939;49.246;9.106;2023-04-03T03:09:51;3.80;99.90
19586;DHT22;9939;49.246;9.106;2023-04-03T03:12:18;3.80;99.90
19586;DHT22;9939;49.246;9.106;2023-04-03T03:14:50;3.60;99.90
19586;DHT22;9939;49.246;9.106;2023-04-03T03:17:17;3.40;99.90
19586;DHT22;9939;49.246;9.106;2023-04-03T03:19:44;3.10;99.90
19586;DHT22;9939;49.246;9.106;2023-04-03T03:22:12;2.80;99.90
19586;DHT22;9939;49.246;9.106;2023-04-03T03:24:39;2.80;99.90
19586;DHT22;9939;49.246;9.106;2023-04-03T03:27:06;2.70;99.90
19586;DHT22;9939;49.246;9.106;2023-04-03T03:29:33;2.50;99.90
19586;DHT22;9939;49.246;9.106;2023-04-03T03:32:02;2.50;99.90
19586;DHT22;9939;49.246;9.106;2023-04-03T03:34:29;2.30;99.90
19586;DHT22;9939;49.246;9.106;2023-04-03T03:36:56;2.20;99.90
19586;DHT22;9939;49.246;9.106;2023-04-03T03:39:23;2.20;99.90
19586;DHT22;9939;49.246;9.106;2023-04-03T03:41:50;2.20;99.90
19586;DHT22;9939;49.246;9.106;2023-04-03T03:44:17;2.20;99.90
19586;DHT22;9939;49.246;9.106;2023-04-03T03:46:44;2.20;99.90
19586;DHT22;9939;49.246;9.106;2023-04-03T03:49:11;2.00;99.90
19586;DHT22;9939;49.246;9.106;2023-04-03T03:51:39;1.90;99.90
19586;DHT22;9939;49.246;9.106;2023-04-03T03:54:07;1.80;99.90
19586;DHT22;9939;49.246;9.106;2023-04-03T03:56:34;1.90;99.90
19586;DHT22;9939;49.246;9.106;2023-04-03T03:59:02;1.90;99.90
19586;DHT22;9939;49.246;9.106;2023-04-03T04:01:30;2.00;99.90
19586;DHT22;9939;49.246;9.106;2023-04-03T04:03:57;1.90;99.90
19586;DHT22;9939;49.246;9.106;2023-04-03T04:06:29;2.00;99.90
19586;DHT22;9939;49.246;9.106;2023-04-03T04:08:59;2.00;99.90
19586;DHT22;9939;49.246;9.106;2023-04-03T04:11:27;1.90;99.90
19586;DHT22;9939;49.246;9.106;2023-04-03T04:13:55;1.90;99.90
19586;DHT22;9939;49.246;9.106;2023-04-03T04:16:25;1.90;99.90
19586;DHT22;9939;49.246;9.106;2023-04-03T04:18:53;1.70;99.90
19586;DHT22;9939;49.246;9.106;2023-04-03T04:21:22;1.70;99.90
19586;DHT22;9939;49.246;9.106;2023-04-03T04:23:51;1.60;99.90
19586;DHT22;9939;49.246;9.106;2023-04-03T04:26:18;1.70;99.90
19586;DHT22;9939;49.246;9.106;2023-04-03T04:28:47;1.80;99.90
19586;DHT22;9939;49.246;9.106;2023-04-03T04:31:15;1.80;99.90
19586;DHT22;9939;49.246;9.106;2023-04-03T04:33:43;1.70;99.90
19586;DHT22;9939;49.246;9.106;2023-04-03T04:36:12;1.80;99.90
19586;DHT22;9939;49.246;9.106;2023-04-03T04:38:44;1.80;99.90
19586;DHT22;9939;49.246;9.106;2023-04-03T04:41:11;1.70;99.90
19586;DHT22;9939;49.246;9.106;2023-04-03T04:43:38;1.70;99.90
19586;DHT22;9939;49.246;9.106;2023-04-03T04:46:07;1.50;99.90
19586;DHT22;9939;49.246;9.106;2023-04-03T04:48:40;1.80;99.90
19586;DHT22;9939;49.246;9.106;2023-04-03T04:51:08;1.50;99.90
19586;DHT22;9939;49.246;9.106;2023-04-03T04:53:37;1.50;99.90
19586;DHT22;9939;49.246;9.106;2023-04-03T04:56:05;1.60;99.90
19586;DHT22;9939;49.246;9.106;2023-04-03T04:58:33;1.60;99.90
19586;DHT22;9939;49.246;9.106;2023-04-03T05:01:02;1.60;99.90
19586;DHT22;9939;49.246;9.106;2023-04-03T05:03:31;1.40;99.90
19586;DHT22;9939;49.246;9.106;2023-04-03T05:05:58;1.50;99.90
19586;DHT22;9939;49.246;9.106;2023-04-03T05:08:28;1.50;99.90
19586;DHT22;9939;49.246;9.106;2023-04-03T05:10:54;1.50;99.90
19586;DHT22;9939;49.246;9.106;2023-04-03T05:13:25;1.60;99.90
19586;DHT22;9939;49.246;9.106;2023-04-03T05:15:52;1.60;99.90
19586;DHT22;9939;49.246;9.106;2023-04-03T05:18:20;1.60;99.90
19586;DHT22;9939;49.246;9.106;2023-04-03T05:20:48;1.60;99.90
19586;DHT22;9939;49.246;9.106;2023-04-03T05:23:17;1.80;99.90
19586;DHT22;9939;49.246;9.106;2023-04-03T05:25:46;1.80;99.90
19586;DHT22;9939;49.246;9.106;2023-04-03T05:28:13;1.70;99.90
19586;DHT22;9939;49.246;9.106;2023-04-03T05:30:41;1.60;99.90
19586;DHT22;9939;49.246;9.106;2023-04-03T05:33:08;1.70;99.90
19586;DHT22;9939;49.246;9.106;2023-04-03T05:35:45;2.50;99.90
19586;DHT22;9939;49.246;9.106;2023-04-03T05:38:18;2.00;99.90
19586;DHT22;9939;49.246;9.106;2023-04-03T05:40:46;2.10;99.90
19586;DHT22;9939;49.246;9.106;2023-04-03T05:43:13;2.20;99.90
19586;DHT22;9939;49.246;9.106;2023-04-03T05:45:42;2.20;99.90
19586;DHT22;9939;49.246;9.106;2023-04-03T05:48:13;2.40;99.90
19586;DHT22;9939;49.246;9.106;2023-04-03T05:50:40;2.20;99.90
19586;DHT22;9939;49.246;9.106;2023-04-03T05:53:24;2.30;99.90
19586;DHT22;9939;49.246;9.106;2023-04-03T05:55:54;2.30;99.90
19586;DHT22;9939;49.246;9.106;2023-04-03T05:58:21;2.40;99.90
19586;DHT22;9939;49.246;9.106;2023-04-03T06:00:50;2.30;99.90
19586;DHT22;9939;49.246;9.106;2023-04-03T06:03:18;2.30;99.90
19586;DHT22;9939;49.246;9.106;2023-04-03T06:05:45;2.40;99.90
19586;DHT22;9939;49.246;9.106;2023-04-03T06:08:13;2.60;99.90
19586;DHT22;9939;49.246;9.106;2023-04-03T06:10:41;2.50;99.90
19586;DHT22;9939;49.246;9.106;2023-04-03T06:13:08;2.70;99.90
19586;DHT22;9939;49.246;9.106;2023-04-03T06:15:35;2.80;99.90
19586;DHT22;9939;49.246;9.106;2023-04-03T06:18:02;2.80;99.90
19586;DHT22;9939;49.246;9.106;2023-04-03T06:20:29;3.00;99.90
19586;DHT22;9939;49.246;9.106;2023-04-03T06:22:58;3.00;99.90
19586;DHT22;9939;49.246;9.106;2023-04-03T06:25:26;3.10;99.90
19586;DHT22;9939;49.246;9.106;2023-04-03T06:27:53;3.20;99.90
19586;DHT22;9939;49.246;9.106;2023-04-03T06:30:22;3.40;99.90
19586;DHT22;9939;49.246;9.106;2023-04-03T06:32:49;3.50;99.90
19586;DHT22;9939;49.246;9.106;2023-04-03T06:35:17;3.60;99.90
19586;DHT22;9939;49.246;9.106;2023-04-03T06:37:44;3.80;99.90
19586;DHT22;9939;49.246;9.106;2023-04-03T06:40:14;3.90;99.90
19586;DHT22;9939;49.246;9.106;2023-04-03T06:42:44;4.00;99.90
19586;DHT22;9939;49.246;9.106;2023-04-03T06:45:12;4.20;99.90
19586;DHT22;9939;49.246;9.106;2023-04-03T06:47:39;4.20;99.90
19586;DHT22;9939;49.246;9.106;2023-04-03T06:50:06;4.40;99.90
19586;DHT22;9939;49.246;9.106;2023-04-03T06:52:35;4.60;99.90
19586;DHT22;9939;49.246;9.106;2023-04-03T06:55:02;4.90;99.90
19586;DHT22;9939;49.246;9.106;2023-04-03T06:57:30;4.90;99.90
19586;DHT22;9939;49.246;9.106;2023-04-03T06:59:57;4.90;99.90
19586;DHT22;9939;49.246;9.106;2023-04-03T07:02:24;4.90;99.90
19586;DHT22;9939;49.246;9.106;2023-04-03T07:04:51;5.10;99.90
19586;DHT22;9939;49.246;9.106;2023-04-03T07:07:18;5.20;99.90
19586;DHT22;9939;49.246;9.106;2023-04-03T07:09:45;5.40;99.90
19586;DHT22;9939;49.246;9.106;2023-04-03T07:12:14;5.60;99.90
19586;DHT22;9939;49.246;9.106;2023-04-03T07:14:42;5.70;99.90
19586;DHT22;9939;49.246;9.106;2023-04-03T07:17:09;5.90;99.90
19586;DHT22;9939;49.246;9.106;2023-04-03T07:19:36;5.90;99.90
19586;DHT22;9939;49.246;9.106;2023-04-03T07:22:03;5.80;99.90
19586;DHT22;9939;49.246;9.106;2023-04-03T07:24:30;6.10;99.90
19586;DHT22;9939;49.246;9.106;2023-04-03T07:26:57;6.10;99.90
19586;DHT22;9939;49.246;9.106;2023-04-03T07:29:24;6.30;99.90
19586;DHT22;9939;49.246;9.106;2023-04-03T07:31:51;6.60;99.90
19586;DHT22;9939;49.246;9.106;2023-04-03T07:34:19;6.80;99.90
19586;DHT22;9939;49.246;9.106;2023-04-03T07:36:46;6.90;99.90
19586;DHT22;9939;49.246;9.106;2023-04-03T07:39:13;6.90;99.90
19586;DHT22;9939;49.246;9.106;2023-04-03T07:41:40;6.90;99.90
19586;DHT22;9939;49.246;9.106;2023-04-03T07:44:07;7.00;99.90
19586;DHT22;9939;49.246;9.106;2023-04-03T07:46:36;7.10;99.90
19586;DHT22;9939;49.246;9.106;2023-04-03T07:49:03;7.20;99.90
19586;DHT22;9939;49.246;9.106;2023-04-03T07:51:31;7.40;99.90
19586;DHT22;9939;49.246;9.106;2023-04-03T07:53:58;7.10;99.90
19586;DHT22;9939;49.246;9.106;2023-04-03T07:56:25;7.20;99.90
19586;DHT22;9939;49.246;9.106;2023-04-03T07:58:52;7.50;99.90
19586;DHT22;9939;49.246;9.106;2023-04-03T08:01:20;7.90;99.90
19586;DHT22;9939;49.246;9.106;2023-04-03T08:03:47;9.00;99.90
19586;DHT22;9939;49.246;9.106;2023-04-03T08:06:14;9.60;99.90
19586;DHT22;9939;49.246;9.106;2023-04-03T08:08:45;9.80;99.90
19586;DHT22;9939;49.246;9.106;2023-04-03T08:11:12;9.70;99.90
19586;DHT22;9939;49.246;9.106;2023-04-03T08:13:39;9.50;99.90
19586;DHT22;9939;49.246;9.106;2023-04-03T08:16:09;9.20;99.90
19586;DHT22;9939;49.246;9.106;2023-04-03T08:18:36;9.70;99.90
19586;DHT22;9939;49.246;9.106;2023-04-03T08:21:07;9.10;99.90
19586;DHT22;9939;49.246;9.106;2023-04-03T08:23:34;9.20;99.90
19586;DHT22;9939;49.246;9.106;2023-04-03T08:26:05;9.30;99.90
19586;DHT22;9939;49.246;9.106;2023-04-03T08:28:32;9.10;99.90
19586;DHT22;9939;49.246;9.106;2023-04-03T08:31:04;7.90;99.90
19586;DHT22;9939;49.246;9.106;2023-04-03T08:33:33;7.40;99.90
19586;DHT22;9939;49.246;9.106;2023-04-03T08:36:00;7.30;99.90
19586;DHT22;9939;49.246;9.106;2023-04-03T08:38:27;7.40;99.90
19586;DHT22;9939;49.246;9.106;2023-04-03T08:41:11;7.30;99.90
19586;DHT22;9939;49.246;9.106;2023-04-03T08:43:48;7.70;99.90
19586;DHT22;9939;49.246;9.106;2023-04-03T08:46:19;8.60;99.90
19586;DHT22;9939;49.246;9.106;2023-04-03T08:48:49;9.90;99.90
19586;DHT22;9939;49.246;9.106;2023-04-03T08:51:18;10.70;99.90
19586;DHT22;9939;49.246;9.106;2023-04-03T08:53:56;10.90;99.90
19586;DHT22;9939;49.246;9.106;2023-04-03T08:56:25;11.70;99.90
19586;DHT22;9939;49.246;9.106;2023-04-03T08:58:55;12.70;99.90
19586;DHT22;9939;49.246;9.106;2023-04-03T09:01:24;12.70;99.90
19586;DHT22;9939;49.246;9.106;2023-04-03T09:03:53;12.70;99.90
19586;DHT22;9939;49.246;9.106;2023-04-03T09:06:26;12.30;99.90
19586;DHT22;9939;49.246;9.106;2023-04-03T09:09:09;12.60;99.90
19586;DHT22;9939;49.246;9.106;2023-04-03T09:11:43;12.10;99.90
19586;DHT22;9939;49.246;9.106;2023-04-03T09:14:29;12.90;99.90
19586;DHT22;9939;49.246;9.106;2023-04-03T09:17:26;12.90;99.90
19586;DHT22;9939;49.246;9.106;2023-04-03T09:24:42;13.80;99.90
19586;DHT22;9939;49.246;9.106;2023-04-03T09:27:11;13.60;99.90
19586;DHT22;9939;49.246;9.106;2023-04-03T09:29:39;14.20;99.90
19586;DHT22;9939;49.246;9.106;2023-04-03T09:32:18;15.40;99.90
19586;DHT22;9939;49.246;9.106;2023-04-03T09:34:45;15.30;99.90
19586;DHT22;9939;49.246;9.106;2023-04-03T09:37:33;14.80;99.90
19586;DHT22;9939;49.246;9.106;2023-04-03T09:40:02;14.70;99.90
19586;DHT22;9939;49.246;9.106;2023-04-03T09:42:31;14.20;99.90
19586;DHT22;9939;49.246;9.106;2023-04-03T09:44:59;14.00;99.90
19586;DHT22;9939;49.246;9.106;2023-04-03T09:47:27;13.70;99.90
19586;DHT22;9939;49.246;9.106;2023-04-03T09:52:41;11.10;99.90
19586;DHT22;9939;49.246;9.106;2023-04-03T09:55:25;10.30;99.90
19586;DHT22;9939;49.246;9.106;2023-04-03T09:58:00;10.50;99.90
19586;DHT22;9939;49.246;9.106;2023-04-03T10:02:57;10.90;99.90
19586;DHT22;9939;49.246;9.106;2023-04-03T10:05:35;10.40;99.90
19586;DHT22;9939;49.246;9.106;2023-04-03T10:08:24;10.60;99.90
19586;DHT22;9939;49.246;9.106;2023-04-03T10:11:08;10.20;99.90
19586;DHT22;9939;49.246;9.106;2023-04-03T10:13:40;10.70;99.90
19586;DHT22;9939;49.246;9.106;2023-04-03T10:16:18;11.30;99.90
19586;DHT22;9939;49.246;9.106;2023-04-03T10:19:01;11.40;99.90
19586;DHT22;9939;49.246;9.106;2023-04-03T10:24:08;12.00;99.90
19586;DHT22;9939;49.246;9.106;2023-04-03T10:26:49;11.10;99.90
19586;DHT22;9939;49.246;9.106;2023-04-03T10:31:58;12.10;99.90
19586;DHT22;9939;49.246;9.106;2023-04-03T10:34:30;11.40;99.90
19586;DHT22;9939;49.246;9.106;2023-04-03T10:52:52;10.80;99.90
19586;DHT22;9939;49.246;9.106;2023-04-03T10:57:54;10.70;99.90
19586;DHT22;9939;49.246;9.106;2023-04-03T11:00:26;11.00;99.90
19586;DHT22;9939;49.246;9.106;2023-04-03T11:02:58;11.30;99.90
19586;DHT22;9939;49.246;9.106;2023-04-03T11:07:53;10.60;99.90
19586;DHT22;9939;49.246;9.106;2023-04-03T11:13:02;11.90;99.90
19586;DHT22;9939;49.246;9.106;2023-04-03T11:15:33;11.10;99.90
19586;DHT22;9939;49.246;9.106;2023-04-03T11:18:04;10.60;99.90
19586;DHT22;9939;49.246;9.106;2023-04-03T11:20:36;10.10;99.90
19586;DHT22;9939;49.246;9.106;2023-04-03T11:23:25;9.30;99.90
19586;DHT22;9939;49.246;9.106;2023-04-03T11:26:15;9.70;99.90
19586;DHT22;9939;49.246;9.106;2023-04-03T11:28:42;10.20;99.90
19586;DHT22;9939;49.246;9.106;2023-04-03T11:36:29;10.20;99.90
19586;DHT22;9939;49.246;9.106;2023-04-03T11:39:23;9.90;99.90
19586;DHT22;9939;49.246;9.106;2023-04-03T11:41:49;10.00;99.90
19586;DHT22;9939;49.246;9.106;2023-04-03T11:46:59;10.70;99.90
19586;DHT22;9939;49.246;9.106;2023-04-03T11:52:12;11.40;99.90
19586;DHT22;9939;49.246;9.106;2023-04-03T11:59:56;11.40;99.90
19586;DHT22;9939;49.246;9.106;2023-04-03T12:02:36;11.10;99.90
19586;DHT22;9939;49.246;9.106;2023-04-03T12:05:24;11.60;99.90
19586;DHT22;9939;49.246;9.106;2023-04-03T12:10:39;11.60;99.90
19586;DHT22;9939;49.246;9.106;2023-04-03T12:13:13;11.70;99.90
19586;DHT22;9939;49.246;9.106;2023-04-03T12:15:50;11.20;99.90
19586;DHT22;9939;49.246;9.106;2023-04-03T12:21:03;10.70;99.90
19586;DHT22;9939;49.246;9.106;2023-04-03T12:23:34;10.30;99.90
19586;DHT22;9939;49.246;9.106;2023-04-03T12:26:03;10.30;99.90
19586;DHT22;9939;49.246;9.106;2023-04-03T12:28:40;10.90;99.90
19586;DHT22;9939;49.246;9.106;2023-04-03T12:31:08;12.40;99.90
19586;DHT22;9939;49.246;9.106;2023-04-03T12:33:57;14.40;99.90
19586;DHT22;9939;49.246;9.106;2023-04-03T12:36:39;13.80;99.90
19586;DHT22;9939;49.246;9.106;2023-04-03T12:44:59;11.70;99.90
19586;DHT22;9939;49.246;9.106;2023-04-03T12:49:54;10.80;99.90
19586;DHT22;9939;49.246;9.106;2023-04-03T12:52:29;10.60;99.90
19586;DHT22;9939;49.246;9.106;2023-04-03T12:54:57;10.30;99.90
19586;DHT22;9939;49.246;9.106;2023-04-03T12:57:25;10.40;99.90
19586;DHT22;9939;49.246;9.106;2023-04-03T12:59:53;10.40;99.90
19586;DHT22;9939;49.246;9.106;2023-04-03T13:02:24;9.90;99.90
19586;DHT22;9939;49.246;9.106;2023-04-03T13:04:52;9.80;99.90
19586;DHT22;9939;49.246;9.106;2023-04-03T13:07:21;9.80;99.90
19586;DHT22;9939;49.246;9.106;2023-04-03T13:10:02;9.70;99.90
19586;DHT22;9939;49.246;9.106;2023-04-03T13:12:29;10.10;99.90
19586;DHT22;9939;49.246;9.106;2023-04-03T13:14:59;14.80;99.90
19586;DHT22;9939;49.246;9.106;2023-04-03T13:17:27;17.10;97.90
19586;DHT22;9939;49.246;9.106;2023-04-03T13:19:54;15.40;95.90
19586;DHT22;9939;49.246;9.106;2023-04-03T13:24:49;11.60;99.90
19586;DHT22;9939;49.246;9.106;2023-04-03T13:27:17;11.10;99.90
19586;DHT22;9939;49.246;9.106;2023-04-03T13:29:48;11.30;99.90
19586;DHT22;9939;49.246;9.106;2023-04-03T13:32:21;11.80;99.90
19586;DHT22;9939;49.246;9.106;2023-04-03T13:34:49;14.90;99.70
19586;DHT22;9939;49.246;9.106;2023-04-03T13:37:26;15.40;96.90
19586;DHT22;9939;49.246;9.106;2023-04-03T13:40:08;14.20;97.50
19586;DHT22;9939;49.246;9.106;2023-04-03T13:42:38;15.60;97.50
19586;DHT22;9939;49.246;9.106;2023-04-03T13:45:19;18.70;93.40
19586;DHT22;9939;49.246;9.106;2023-04-03T13:47:47;19.40;90.70
19586;DHT22;9939;49.246;9.106;2023-04-03T13:50:17;18.30;90.20
19586;DHT22;9939;49.246;9.106;2023-04-03T13:55:25;16.90;91.10
19586;DHT22;9939;49.246;9.106;2023-04-03T13:58:27;18.20;89.30
19586;DHT22;9939;49.246;9.106;2023-04-03T14:03:14;19.80;85.10
19586;DHT22;9939;49.246;9.106;2023-04-03T14:05:43;16.60;85.20
19586;DHT22;9939;49.246;9.106;2023-04-03T14:08:12;13.70;91.30
19586;DHT22;9939;49.246;9.106;2023-04-03T14:10:39;15.70;91.00
19586;DHT22;9939;49.246;9.106;2023-04-03T14:13:08;17.80;90.00
19586;DHT22;9939;49.246;9.106;2023-04-03T14:15:36;18.40;88.50
19586;DHT22;9939;49.246;9.106;2023-04-03T14:18:03;16.30;90.50
19586;DHT22;9939;49.246;9.106;2023-04-03T14:20:33;14.10;92.40
19586;DHT22;9939;49.246;9.106;2023-04-03T14:23:00;15.20;92.30
19586;DHT22;9939;49.246;9.106;2023-04-03T14:25:27;18.20;90.00
19586;DHT22;9939;49.246;9.106;2023-04-03T14:27:55;18.60;84.80
19586;DHT22;9939;49.246;9.106;2023-04-03T14:30:27;19.70;84.20
19586;DHT22;9939;49.246;9.106;2023-04-03T14:32:54;20.40;83.30
19586;DHT22;9939;49.246;9.106;2023-04-03T14:35:22;21.20;79.90
19586;DHT22;9939;49.246;9.106;2023-04-03T14:37:49;19.40;82.50
19586;DHT22;9939;49.246;9.106;2023-04-03T14:40:19;16.20;86.60
19586;DHT22;9939;49.246;9.106;2023-04-03T14:42:46;15.10;89.60
19586;DHT22;9939;49.246;9.106;2023-04-03T14:45:15;15.10;90.00
19586;DHT22;9939;49.246;9.106;2023-04-03T14:47:46;16.30;86.20
19586;DHT22;9939;49.246;9.106;2023-04-03T14:50:15;19.00;83.10
19586;DHT22;9939;49.246;9.106;2023-04-03T14:52:44;19.40;80.80
19586;DHT22;9939;49.246;9.106;2023-04-03T14:55:12;19.30;80.70
19586;DHT22;9939;49.246;9.106;2023-04-03T14:57:41;18.70;83.70
19586;DHT22;9939;49.246;9.106;2023-04-03T15:00:18;17.20;85.00
19586;DHT22;9939;49.246;9.106;2023-04-03T15:02:45;15.60;88.00
19586;DHT22;9939;49.246;9.106;2023-04-03T15:05:13;14.60;90.20
19586;DHT22;9939;49.246;9.106;2023-04-03T15:07:48;13.20;91.50
19586;DHT22;9939;49.246;9.106;2023-04-03T15:10:18;14.40;91.70
19586;DHT22;9939;49.246;9.106;2023-04-03T15:12:45;15.80;90.30
19586;DHT22;9939;49.246;9.106;2023-04-03T15:15:13;17.00;86.50
19586;DHT22;9939;49.246;9.106;2023-04-03T15:17:41;18.50;83.40
19586;DHT22;9939;49.246;9.106;2023-04-03T15:20:15;19.40;82.30
19586;DHT22;9939;49.246;9.106;2023-04-03T15:22:42;20.00;80.70
19586;DHT22;9939;49.246;9.106;2023-04-03T15:25:09;18.70;82.10
19586;DHT22;9939;49.246;9.106;2023-04-03T15:27:37;16.10;85.10
19586;DHT22;9939;49.246;9.106;2023-04-03T15:30:05;13.80;89.90
19586;DHT22;9939;49.246;9.106;2023-04-03T15:32:32;12.60;92.00
19586;DHT22;9939;49.246;9.106;2023-04-03T15:35:00;14.00;91.10
19586;DHT22;9939;49.246;9.106;2023-04-03T15:37:27;14.90;90.90
19586;DHT22;9939;49.246;9.106;2023-04-03T15:39:54;15.80;86.40
19586;DHT22;9939;49.246;9.106;2023-04-03T15:42:21;16.10;86.50
19586;DHT22;9939;49.246;9.106;2023-04-03T15:44:48;16.70;86.90
19586;DHT22;9939;49.246;9.106;2023-04-03T15:47:15;17.60;83.10
19586;DHT22;9939;49.246;9.106;2023-04-03T15:49:43;17.70;82.40
19586;DHT22;9939;49.246;9.106;2023-04-03T15:52:10;17.50;83.50
19586;DHT22;9939;49.246;9.106;2023-04-03T15:54:37;18.10;82.40
19586;DHT22;9939;49.246;9.106;2023-04-03T15:57:04;17.80;81.50
19586;DHT22;9939;49.246;9.106;2023-04-03T15:59:31;17.30;82.80
19586;DHT22;9939;49.246;9.106;2023-04-03T16:01:58;17.00;84.60
19586;DHT22;9939;49.246;9.106;2023-04-03T16:04:27;15.70;84.50
19586;DHT22;9939;49.246;9.106;2023-04-03T16:06:54;15.90;86.00
19586;DHT22;9939;49.246;9.106;2023-04-03T16:09:21;16.30;86.20
19586;DHT22;9939;49.246;9.106;2023-04-03T16:11:48;17.50;83.70
19586;DHT22;9939;49.246;9.106;2023-04-03T16:14:15;17.70;82.20
19586;DHT22;9939;49.246;9.106;2023-04-03T16:16:42;16.90;81.50
19586;DHT22;9939;49.246;9.106;2023-04-03T16:19:09;15.60;82.90
19586;DHT22;9939;49.246;9.106;2023-04-03T16:21:36;14.60;85.50
19586;DHT22;9939;49.246;9.106;2023-04-03T16:24:03;14.00;88.40
19586;DHT22;9939;49.246;9.106;2023-04-03T16:26:31;14.10;86.40
19586;DHT22;9939;49.246;9.106;2023-04-03T16:28:58;14.40;85.90
19586;DHT22;9939;49.246;9.106;2023-04-03T16:31:25;15.30;85.40
19586;DHT22;9939;49.246;9.106;2023-04-03T16:33:52;15.60;85.80
19586;DHT22;9939;49.246;9.106;2023-04-03T16:36:19;14.90;84.70
19586;DHT22;9939;49.246;9.106;2023-04-03T16:38:46;14.00;86.20
19586;DHT22;9939;49.246;9.106;2023-04-03T16:41:13;11.10;90.30
19586;DHT22;9939;49.246;9.106;2023-04-03T16:43:41;10.20;92.80
19586;DHT22;9939;49.246;9.106;2023-04-03T16:46:09;9.60;94.10
19586;DHT22;9939;49.246;9.106;2023-04-03T16:48:36;8.90;95.00
19586;DHT22;9939;49.246;9.106;2023-04-03T16:51:03;8.60;96.20
19586;DHT22;9939;49.246;9.106;2023-04-03T16:53:30;8.20;96.70
19586;DHT22;9939;49.246;9.106;2023-04-03T16:55:57;7.90;96.50
19586;DHT22;9939;49.246;9.106;2023-04-03T16:58:25;7.90;96.30
19586;DHT22;9939;49.246;9.106;2023-04-03T17:00:52;7.80;96.70
19586;DHT22;9939;49.246;9.106;2023-04-03T17:03:20;7.60;98.10
19586;DHT22;9939;49.246;9.106;2023-04-03T17:05:47;7.70;98.20
19586;DHT22;9939;49.246;9.106;2023-04-03T17:08:15;8.00;97.60
19586;DHT22;9939;49.246;9.106;2023-04-03T17:10:43;8.00;97.90
19586;DHT22;9939;49.246;9.106;2023-04-03T17:13:10;8.20;97.30
19586;DHT22;9939;49.246;9.106;2023-04-03T17:15:37;8.40;97.40
19586;DHT22;9939;49.246;9.106;2023-04-03T17:18:04;8.40;97.90
19586;DHT22;9939;49.246;9.106;2023-04-03T17:20:33;8.00;98.40
19586;DHT22;9939;49.246;9.106;2023-04-03T17:23:00;7.80;98.40
19586;DHT22;9939;49.246;9.106;2023-04-03T17:25:27;7.80;98.20
19586;DHT22;9939;49.246;9.106;2023-04-03T17:27:54;7.70;97.50
19586;DHT22;9939;49.246;9.106;2023-04-03T17:30:22;7.50;98.10